Terminal Aerodrome Forecast
Issued by NWS El Paso, TX

Home | Current Version | Previous Version | Text Only | Print | Product List | Glossary On
Versions: 1 2 3 4 5 6 7 8 9 10 11 12 13 14
000
FTUS44 KEPZ 221722
TAFELP
TAF
KELP 221722Z 2218/2318 22007KT P6SM FEW080
     FM222100 27015G25KT P6SM FEW100
     FM230300 33008KT P6SM SKC
     FM231200 03007KT P6SM SKC=

USA.gov is the U.S. government's official web portal to all federal, state and local government web resources and services.